createdAt,value
2022-12-23T00:00:39.327Z,1.12
2022-12-23T00:03:06.364Z,1.10
2022-12-23T00:05:38.511Z,1.17
2022-12-23T00:08:06.623Z,1.34
2022-12-23T00:10:37.777Z,1.12
2022-12-23T00:13:23.146Z,1.16
2022-12-23T00:15:49.634Z,1.16
2022-12-23T00:18:16.200Z,0.83
2022-12-23T00:20:42.782Z,0.63
2022-12-23T00:23:09.287Z,0.33
2022-12-23T00:25:41.192Z,-0.18
2022-12-23T00:28:14.709Z,-0.36
2022-12-23T00:31:04.904Z,-0.67
2022-12-23T00:33:40.075Z,-1.12
2022-12-23T00:36:27.739Z,-1.45
2022-12-23T00:39:14.249Z,-1.43
2022-12-23T00:41:59.446Z,-0.89
2022-12-23T00:44:26.477Z,-0.66
2022-12-23T00:46:53.493Z,-0.49
2022-12-23T00:49:39.633Z,-0.51
2022-12-23T00:52:08.526Z,-0.54
2022-12-23T00:54:35.239Z,-0.48
2022-12-23T00:57:02.467Z,-0.47
2022-12-23T00:59:29.049Z,-0.44
2022-12-23T01:02:14.706Z,-0.46
2022-12-23T01:04:59.982Z,-0.34
2022-12-23T01:07:26.477Z,-0.27
2022-12-23T01:09:52.994Z,-0.31
2022-12-23T01:12:19.703Z,-0.41
2022-12-23T01:14:46.311Z,-0.60
2022-12-23T01:17:13.140Z,-0.75
2022-12-23T01:19:40.243Z,-0.94
2022-12-23T01:22:06.827Z,-1.05
2022-12-23T01:24:33.868Z,-1.18
2022-12-23T01:27:00.954Z,-1.25
2022-12-23T01:29:28.861Z,-1.27
2022-12-23T01:31:55.713Z,-1.20
2022-12-23T01:34:22.597Z,-1.10
2022-12-23T01:36:49.159Z,-1.04
2022-12-23T01:39:15.782Z,-0.97
2022-12-23T01:42:00.788Z,-0.92
2022-12-23T01:44:45.783Z,-1.05
2022-12-23T01:47:16.863Z,-1.18
2022-12-23T01:49:43.781Z,-1.32
2022-12-23T01:52:11.907Z,-1.32
2022-12-23T01:54:39.279Z,-1.45
2022-12-23T01:57:05.993Z,-1.82
2022-12-23T01:59:51.522Z,-2.20
2022-12-23T02:02:36.821Z,-2.44
2022-12-23T02:05:03.587Z,-2.57
2022-12-23T02:07:50.187Z,-2.61
2022-12-23T02:10:16.999Z,-2.59
2022-12-23T02:12:57.985Z,-2.55
2022-12-23T02:16:06.184Z,-2.59
2022-12-23T02:18:46.817Z,-2.48
2022-12-23T02:21:19.414Z,-2.20
2022-12-23T02:23:56.873Z,-1.96
2022-12-23T02:27:06.129Z,-1.84
2022-12-23T02:29:56.682Z,-1.70
2022-12-23T02:32:32.245Z,-1.65
2022-12-23T02:35:10.922Z,-1.78
2022-12-23T02:37:43.856Z,-1.82
2022-12-23T02:40:20.623Z,-1.82
2022-12-23T02:43:04.714Z,-1.91
2022-12-23T02:45:43.755Z,-2.07
2022-12-23T02:48:34.380Z,-2.12
2022-12-23T02:51:03.964Z,-1.99
2022-12-23T02:53:45.799Z,-1.69
2022-12-23T02:56:14.973Z,-1.51
2022-12-23T02:58:47.769Z,-1.46
2022-12-23T03:01:16.493Z,-1.52
2022-12-23T03:03:45.792Z,-1.53
2022-12-23T03:06:21.720Z,-1.40
2022-12-23T03:08:51.053Z,-1.25
2022-12-23T03:11:18.475Z,-1.13
2022-12-23T03:14:32.957Z,-1.39
2022-12-23T03:17:20.753Z,-1.86
2022-12-23T03:19:57.828Z,-1.96
2022-12-23T03:22:38.483Z,-2.02
2022-12-23T03:25:25.459Z,-2.08
2022-12-23T03:28:25.540Z,-2.11
2022-12-23T03:30:57.403Z,-2.07
2022-12-23T03:33:31.714Z,-1.92
2022-12-23T03:36:09.811Z,-1.79
2022-12-23T03:38:41.393Z,-1.33
2022-12-23T03:41:17.388Z,-0.93
2022-12-23T03:43:51.266Z,-0.58
2022-12-23T03:46:29.528Z,-0.25
2022-12-23T03:49:04.360Z,-0.08
2022-12-23T03:51:44.313Z,0.01
2022-12-23T03:54:17.060Z,-0.53
2022-12-23T03:56:51.530Z,-1.19
2022-12-23T03:59:22.313Z,-1.45
2022-12-23T04:02:23.656Z,-1.56
2022-12-23T04:05:19.712Z,-1.54
2022-12-23T04:08:11.241Z,-1.42
2022-12-23T04:10:38.042Z,-1.52
2022-12-23T04:13:04.847Z,-1.64
2022-12-23T04:15:31.904Z,-1.70
2022-12-23T04:17:58.813Z,-1.69
2022-12-23T04:20:25.915Z,-1.71
2022-12-23T04:22:52.495Z,-1.82
2022-12-23T04:25:19.280Z,-1.89
2022-12-23T04:27:45.917Z,-1.83
2022-12-23T04:30:16.306Z,-1.84
2022-12-23T04:32:42.868Z,-1.83
2022-12-23T04:35:10.513Z,-2.00
2022-12-23T04:37:37.834Z,-2.02
2022-12-23T04:40:05.653Z,-1.90
2022-12-23T04:42:32.268Z,-1.85
2022-12-23T04:44:59.044Z,-1.88
2022-12-23T04:47:25.773Z,-1.95
2022-12-23T04:49:52.274Z,-2.08
2022-12-23T04:52:18.923Z,-2.18
2022-12-23T04:54:46.534Z,-2.29
2022-12-23T04:57:13.898Z,-2.24
2022-12-23T04:59:40.435Z,-2.16
2022-12-23T05:02:08.099Z,-2.41
2022-12-23T05:04:35.091Z,-2.38
2022-12-23T05:07:01.769Z,-2.24
2022-12-23T05:09:28.500Z,-2.36
2022-12-23T05:11:55.408Z,-2.72
2022-12-23T05:14:21.920Z,-2.92
2022-12-23T05:16:48.501Z,-2.89
2022-12-23T05:19:15.263Z,-2.97
2022-12-23T05:21:41.795Z,-2.82
2022-12-23T05:24:08.442Z,-2.90
2022-12-23T05:26:35.011Z,-2.98
2022-12-23T05:29:01.544Z,-3.00
2022-12-23T05:31:28.180Z,-2.83
2022-12-23T05:33:54.789Z,-2.94
2022-12-23T05:36:21.862Z,-2.80
2022-12-23T05:38:48.505Z,-3.05
2022-12-23T05:41:16.862Z,-3.26
2022-12-23T05:43:43.409Z,-3.26
2022-12-23T05:46:10.003Z,-2.80
2022-12-23T05:48:36.579Z,-2.77
2022-12-23T05:51:03.176Z,-2.94
2022-12-23T05:53:29.770Z,-2.59
2022-12-23T05:55:56.355Z,-2.74
2022-12-23T05:58:22.906Z,-2.82
2022-12-23T06:00:49.465Z,-2.67
2022-12-23T06:03:16.127Z,-2.92
2022-12-23T06:05:43.887Z,-2.99
2022-12-23T06:08:10.479Z,-3.15
2022-12-23T06:10:37.157Z,-3.08
2022-12-23T06:13:03.714Z,-3.16
2022-12-23T06:15:30.275Z,-3.22
2022-12-23T06:17:56.851Z,-3.16
2022-12-23T06:20:23.378Z,-3.02
2022-12-23T06:22:49.972Z,-2.81
2022-12-23T06:25:16.676Z,-2.76
2022-12-23T06:27:43.237Z,-2.69
2022-12-23T06:30:10.435Z,-2.55
2022-12-23T06:32:38.832Z,-2.47
2022-12-23T06:35:07.343Z,-2.61
2022-12-23T06:37:34.269Z,-2.60
2022-12-23T06:40:00.856Z,-2.47
2022-12-23T06:42:27.390Z,-2.51
2022-12-23T06:44:53.919Z,-2.50
2022-12-23T06:47:20.629Z,-2.50
2022-12-23T06:49:47.210Z,-2.69
2022-12-23T06:52:13.742Z,-2.93
2022-12-23T06:54:40.251Z,-2.91
2022-12-23T06:57:06.804Z,-2.86
2022-12-23T06:59:33.323Z,-2.91
2022-12-23T07:01:59.952Z,-2.84
2022-12-23T07:04:26.651Z,-2.85
2022-12-23T07:06:53.167Z,-2.77
2022-12-23T07:09:19.729Z,-2.69
2022-12-23T07:11:46.342Z,-2.46
2022-12-23T07:14:12.838Z,-2.52
2022-12-23T07:16:39.449Z,-2.54
2022-12-23T07:19:06.103Z,-2.46
2022-12-23T07:21:32.717Z,-2.62
2022-12-23T07:23:59.320Z,-2.67
2022-12-23T07:26:25.878Z,-2.79
2022-12-23T07:28:52.480Z,-2.67
2022-12-23T07:31:19.009Z,-2.50
2022-12-23T07:33:45.748Z,-2.65
2022-12-23T07:36:12.259Z,-2.45
2022-12-23T07:38:38.798Z,-2.44
2022-12-23T07:41:05.522Z,-2.60
2022-12-23T07:43:32.043Z,-2.62
2022-12-23T07:46:00.694Z,-2.56
2022-12-23T07:48:27.992Z,-2.63
2022-12-23T07:51:00.799Z,-2.65
2022-12-23T07:53:27.667Z,-2.51
2022-12-23T07:55:56.608Z,-2.56
2022-12-23T07:58:23.839Z,-2.51
2022-12-23T08:00:50.609Z,-2.41
2022-12-23T08:03:17.375Z,-2.38
2022-12-23T08:05:44.027Z,-2.26
2022-12-23T08:08:10.602Z,-1.84
2022-12-23T08:10:41.417Z,-1.80
2022-12-23T08:13:11.097Z,-2.02
2022-12-23T08:15:37.661Z,-1.70
2022-12-23T08:18:04.310Z,-1.61
2022-12-23T08:20:30.816Z,-1.80
2022-12-23T08:22:57.321Z,-1.80
2022-12-23T08:25:23.855Z,-1.77
2022-12-23T08:27:51.320Z,-1.41
2022-12-23T08:30:18.983Z,-1.35
2022-12-23T08:32:45.535Z,-1.20
2022-12-23T08:35:12.088Z,-1.06
2022-12-23T08:37:38.685Z,-0.86
2022-12-23T08:40:05.756Z,-0.84
2022-12-23T08:42:32.315Z,-1.12
2022-12-23T08:44:58.930Z,-0.98
2022-12-23T08:47:25.432Z,-1.01
2022-12-23T08:49:52.018Z,-1.03
2022-12-23T08:52:18.565Z,-0.89
2022-12-23T08:54:45.124Z,-0.85
2022-12-23T08:57:11.659Z,-0.84
2022-12-23T08:59:38.804Z,-0.84
2022-12-23T09:02:05.494Z,-0.88
2022-12-23T09:04:32.190Z,-0.87
2022-12-23T09:06:58.796Z,-1.02
2022-12-23T09:09:25.312Z,-1.01
2022-12-23T09:11:51.821Z,-0.96
2022-12-23T09:14:18.344Z,-1.01
2022-12-23T09:16:44.975Z,-0.78
2022-12-23T09:19:11.569Z,-0.76
2022-12-23T09:21:38.066Z,-0.91
2022-12-23T09:24:04.980Z,-0.84
2022-12-23T09:26:31.776Z,-0.78
2022-12-23T09:28:58.769Z,-0.60
2022-12-23T09:31:30.444Z,-0.49
2022-12-23T09:34:00.816Z,-0.51
2022-12-23T09:36:27.396Z,-0.40
2022-12-23T09:38:56.258Z,-0.65
2022-12-23T09:41:38.435Z,-0.59
2022-12-23T09:44:33.675Z,-0.73
2022-12-23T09:47:04.696Z,-0.77
2022-12-23T09:49:32.627Z,-0.65
2022-12-23T09:52:03.806Z,-0.63
2022-12-23T09:54:38.168Z,-0.85
2022-12-23T09:57:23.134Z,-0.49
2022-12-23T10:00:01.546Z,-0.22
2022-12-23T10:02:31.282Z,-0.21
2022-12-23T10:05:16.622Z,-0.09
2022-12-23T10:08:32.740Z,-0.10
2022-12-23T10:11:28.165Z,-0.16
2022-12-23T10:14:09.876Z,-0.07
2022-12-23T10:16:42.902Z,-0.01
2022-12-23T10:19:20.384Z,-0.05
2022-12-23T10:22:06.279Z,-0.04
2022-12-23T10:24:42.446Z,-0.34
2022-12-23T10:27:20.919Z,-0.35
2022-12-23T10:29:47.467Z,-0.40
2022-12-23T10:32:34.528Z,-0.49
2022-12-23T10:35:15.754Z,-0.46
2022-12-23T10:37:57.556Z,-0.44
2022-12-23T10:40:33.087Z,-0.32
2022-12-23T10:43:45.702Z,-0.32
2022-12-23T10:46:29.226Z,-0.57
2022-12-23T10:49:15.348Z,-0.51
2022-12-23T10:51:52.649Z,-0.40
2022-12-23T10:54:40.518Z,-0.29
2022-12-23T10:57:08.605Z,-0.15
2022-12-23T10:59:36.782Z,-0.07
2022-12-23T11:02:12.730Z,-0.01
2022-12-23T11:04:44.992Z,0.01
2022-12-23T11:07:44.021Z,-0.06
2022-12-23T11:10:20.740Z,-0.05
2022-12-23T11:12:53.023Z,0.08
2022-12-23T11:15:38.354Z,0.17
2022-12-23T11:18:19.505Z,0.16
2022-12-23T11:21:02.795Z,0.19
2022-12-23T11:23:35.993Z,0.05
2022-12-23T11:26:07.202Z,-0.26
2022-12-23T11:28:37.631Z,-0.48
2022-12-23T11:31:09.774Z,-0.35
2022-12-23T11:33:40.028Z,-0.16
2022-12-23T11:36:12.495Z,-0.06
2022-12-23T11:39:06.858Z,-0.02
2022-12-23T11:41:53.105Z,-0.08
2022-12-23T11:44:34.102Z,-0.03
2022-12-23T11:47:25.344Z,-0.29
2022-12-23T11:50:00.203Z,-0.37
2022-12-23T11:52:32.584Z,-0.48
2022-12-23T11:55:04.914Z,-0.41
2022-12-23T11:57:43.196Z,-0.35
2022-12-23T12:00:26.349Z,-0.37
2022-12-23T12:02:57.014Z,-0.23
2022-12-23T12:05:35.697Z,-0.26
2022-12-23T12:08:06.903Z,-0.18
2022-12-23T12:10:36.460Z,-0.24
2022-12-23T12:13:06.629Z,-0.62
2022-12-23T12:15:44.663Z,-0.55
2022-12-23T12:18:17.389Z,-0.62
2022-12-23T12:20:53.185Z,-0.74
2022-12-23T12:23:28.785Z,-0.73
2022-12-23T12:26:00.727Z,-0.58
2022-12-23T12:28:38.768Z,-0.38
2022-12-23T12:31:28.099Z,-0.31
2022-12-23T12:33:57.973Z,-0.53
2022-12-23T12:36:34.886Z,-0.61
2022-12-23T12:39:01.491Z,-0.76
2022-12-23T12:41:35.751Z,-0.63
2022-12-23T12:44:38.697Z,-0.68
2022-12-23T12:47:52.256Z,-0.49
2022-12-23T12:50:20.335Z,-0.52
2022-12-23T12:52:46.965Z,-0.43
2022-12-23T12:55:16.389Z,-0.36
2022-12-23T12:57:43.173Z,-0.46
2022-12-23T13:00:18.959Z,-0.39
2022-12-23T13:03:15.606Z,-0.27
2022-12-23T13:05:51.696Z,-0.77
2022-12-23T13:08:23.321Z,-0.83
2022-12-23T13:11:24.911Z,-0.57
2022-12-23T13:14:03.770Z,-0.59
2022-12-23T13:16:45.671Z,-0.58
2022-12-23T13:19:27.202Z,-0.66
2022-12-23T13:22:08.960Z,-0.74
2022-12-23T13:24:53.972Z,-0.82
2022-12-23T13:27:33.959Z,-0.82
2022-12-23T13:30:13.187Z,-0.80
2022-12-23T13:32:51.687Z,-0.53
2022-12-23T13:35:42.463Z,-0.37
2022-12-23T13:38:36.625Z,-0.27
2022-12-23T13:41:52.460Z,-0.48
2022-12-23T13:44:20.596Z,-0.23
2022-12-23T13:47:12.202Z,-0.32
2022-12-23T13:49:41.502Z,-0.31
2022-12-23T13:52:48.815Z,-0.03
2022-12-23T13:55:47.841Z,0.09
2022-12-23T13:58:18.282Z,0.08
2022-12-23T14:00:44.982Z,0.14
2022-12-23T14:03:14.124Z,0.10
2022-12-23T14:05:51.654Z,0.03
2022-12-23T14:08:31.542Z,0.04
2022-12-23T14:11:19.989Z,0.14
2022-12-23T14:13:49.679Z,0.21
2022-12-23T14:16:22.002Z,0.17
2022-12-23T14:19:02.099Z,0.11
2022-12-23T14:21:40.341Z,0.07
2022-12-23T14:24:47.577Z,-0.06
2022-12-23T14:27:42.632Z,-0.26
2022-12-23T14:30:32.928Z,-0.45
2022-12-23T14:33:02.560Z,-0.57
2022-12-23T14:35:37.000Z,-0.86
2022-12-23T14:38:14.407Z,-1.01
2022-12-23T14:40:50.449Z,-0.79
2022-12-23T14:43:23.335Z,-0.70
2022-12-23T14:45:57.604Z,-0.60
2022-12-23T14:48:37.107Z,-0.53
2022-12-23T14:51:09.829Z,-0.44
2022-12-23T14:53:57.264Z,-0.73
2022-12-23T14:56:35.855Z,-0.95
2022-12-23T14:59:23.845Z,-1.05
2022-12-23T15:02:00.433Z,-0.86
2022-12-23T15:04:47.946Z,-0.64
2022-12-23T15:07:26.264Z,-0.75
2022-12-23T15:10:00.668Z,-0.64
2022-12-23T15:12:34.034Z,-0.55
2022-12-23T15:15:04.806Z,-0.50
2022-12-23T15:17:36.640Z,-0.57
2022-12-23T15:20:23.455Z,-0.62
2022-12-23T15:22:50.843Z,-0.68
2022-12-23T15:25:26.657Z,-0.46
2022-12-23T15:28:01.188Z,-0.47
2022-12-23T15:30:35.328Z,-0.65
2022-12-23T15:33:15.997Z,-0.64
2022-12-23T15:35:52.888Z,-0.59
2022-12-23T15:38:21.300Z,-0.62
2022-12-23T15:41:00.530Z,-0.62
2022-12-23T15:43:27.399Z,-0.54
2022-12-23T15:45:54.297Z,-0.49
2022-12-23T15:48:31.763Z,-0.14
2022-12-23T15:51:57.775Z,-0.35
2022-12-23T15:54:27.005Z,-0.13
2022-12-23T15:56:56.151Z,0.03
2022-12-23T15:59:27.840Z,0.10
2022-12-23T16:01:55.240Z,0.25
2022-12-23T16:04:29.435Z,-0.01
2022-12-23T16:06:56.299Z,-0.14
2022-12-23T16:09:30.755Z,-0.12
2022-12-23T16:11:58.821Z,0.02
2022-12-23T16:14:32.451Z,-0.03
2022-12-23T16:17:00.280Z,-0.09
2022-12-23T16:19:51.798Z,0.08
2022-12-23T16:22:30.028Z,0.04
2022-12-23T16:24:56.512Z,0.16
2022-12-23T16:27:46.458Z,0.17
2022-12-23T16:30:24.134Z,0.23
2022-12-23T16:32:57.398Z,0.19
2022-12-23T16:35:30.640Z,0.17
2022-12-23T16:38:08.762Z,0.25
2022-12-23T16:40:35.426Z,0.20
2022-12-23T16:43:02.067Z,0.20
2022-12-23T16:45:32.060Z,-0.09
2022-12-23T16:47:59.517Z,-0.32
2022-12-23T16:50:27.054Z,-0.48
2022-12-23T16:52:53.651Z,-0.53
2022-12-23T16:55:20.748Z,-0.59
2022-12-23T16:57:47.355Z,-0.61
2022-12-23T17:00:17.470Z,-0.54
2022-12-23T17:02:45.216Z,-0.41
2022-12-23T17:05:17.276Z,-0.11
2022-12-23T17:07:45.634Z,0.00
2022-12-23T17:10:14.560Z,0.13
2022-12-23T17:12:41.685Z,0.41
2022-12-23T17:15:12.666Z,0.42
2022-12-23T17:17:39.273Z,0.40
2022-12-23T17:20:09.333Z,0.35
2022-12-23T17:22:36.263Z,0.43
2022-12-23T17:25:03.161Z,0.45
2022-12-23T17:27:29.808Z,0.54
2022-12-23T17:29:56.356Z,0.66
2022-12-23T17:32:24.424Z,0.71
2022-12-23T17:34:51.246Z,0.73
2022-12-23T17:37:20.087Z,0.78
2022-12-23T17:39:47.791Z,0.88
2022-12-23T17:42:25.585Z,0.87
2022-12-23T17:44:52.534Z,0.88
2022-12-23T17:47:22.309Z,0.94
2022-12-23T18:33:08.739Z,0.47
2022-12-23T18:35:39.638Z,0.48
2022-12-23T18:38:06.237Z,0.37
2022-12-23T18:40:33.310Z,0.22
2022-12-23T18:43:00.322Z,0.13
2022-12-23T18:45:38.785Z,0.16
2022-12-23T18:48:07.288Z,0.23
2022-12-23T18:50:36.773Z,0.21
2022-12-23T18:53:04.181Z,0.15
2022-12-23T18:55:30.896Z,-0.03
2022-12-23T18:57:59.450Z,-0.01
2022-12-23T19:00:33.578Z,-0.04
2022-12-23T19:03:00.239Z,-0.02
2022-12-23T19:05:29.363Z,0.16
2022-12-23T19:07:57.702Z,0.17
2022-12-23T19:10:33.356Z,0.22
2022-12-23T19:13:00.803Z,0.21
2022-12-23T19:15:27.460Z,0.19
2022-12-23T19:17:54.129Z,0.26
2022-12-23T19:20:20.979Z,0.51
2022-12-23T19:22:48.817Z,0.25
2022-12-23T19:25:18.220Z,0.17
2022-12-23T19:27:46.080Z,0.17
2022-12-23T19:30:15.240Z,0.17
2022-12-23T19:32:41.807Z,0.21
2022-12-23T19:35:11.934Z,0.19
2022-12-23T19:37:38.513Z,0.30
2022-12-23T19:40:06.505Z,0.34
2022-12-23T19:42:33.967Z,0.34
2022-12-23T19:45:00.892Z,0.32
2022-12-23T19:47:27.485Z,0.27
2022-12-23T19:49:53.997Z,0.21
2022-12-23T19:52:20.558Z,0.25
2022-12-23T19:54:47.073Z,0.27
2022-12-23T19:57:13.643Z,0.28
2022-12-23T19:59:40.177Z,0.40
2022-12-23T20:02:06.815Z,0.38
2022-12-23T20:04:33.430Z,0.40
2022-12-23T20:06:59.948Z,0.44
2022-12-23T20:09:26.538Z,0.52
2022-12-23T20:11:53.105Z,0.69
2022-12-23T20:14:21.612Z,0.77
2022-12-23T20:16:48.604Z,0.69
2022-12-23T20:19:15.835Z,0.64
2022-12-23T20:21:42.817Z,0.69
2022-12-23T20:24:09.480Z,0.61
2022-12-23T20:26:36.115Z,0.54
2022-12-23T20:29:03.249Z,0.61
2022-12-23T20:31:31.764Z,0.76
2022-12-23T20:34:00.343Z,0.92
2022-12-23T20:36:30.009Z,0.86
2022-12-23T20:38:57.370Z,0.78
2022-12-23T20:41:26.296Z,0.72
2022-12-23T20:44:31.617Z,0.67
2022-12-23T20:46:40.162Z,0.68
2022-12-23T20:49:06.849Z,0.62
2022-12-23T20:51:33.362Z,0.57
2022-12-23T20:54:00.970Z,0.48
2022-12-23T20:56:29.366Z,0.29
2022-12-23T20:59:00.193Z,0.25
2022-12-23T21:01:30.934Z,0.36
2022-12-23T21:03:59.441Z,0.41
2022-12-23T21:06:27.119Z,0.44
2022-12-23T21:08:57.074Z,0.38
2022-12-23T21:11:23.772Z,0.43
2022-12-23T21:13:50.659Z,0.39
2022-12-23T21:16:17.500Z,0.49
2022-12-23T21:18:46.761Z,0.45
2022-12-23T21:21:13.308Z,0.40
2022-12-23T21:23:41.844Z,0.49
2022-12-23T21:26:14.608Z,0.63
2022-12-23T21:28:43.102Z,0.42
2022-12-23T21:31:10.610Z,0.41
2022-12-23T21:33:39.448Z,0.22
2022-12-23T21:36:07.478Z,0.25
2022-12-23T21:38:36.696Z,-0.07
2022-12-23T21:41:06.365Z,-0.21
2022-12-23T21:43:33.216Z,-0.14
2022-12-23T21:46:05.545Z,-0.01
2022-12-23T21:48:34.217Z,-0.35
2022-12-23T21:51:21.752Z,-0.52
2022-12-23T21:53:50.688Z,-0.69
2022-12-23T21:56:19.908Z,-0.58
2022-12-23T21:58:47.115Z,-0.56
2022-12-23T22:01:19.131Z,-0.52
2022-12-23T22:03:48.436Z,-0.39
2022-12-23T22:06:21.470Z,-0.29
2022-12-23T22:08:51.735Z,-0.20
2022-12-23T22:11:21.648Z,0.01
2022-12-23T22:13:48.199Z,0.22
2022-12-23T22:16:17.430Z,0.42
2022-12-23T22:18:44.317Z,0.66
2022-12-23T22:21:14.860Z,0.87
2022-12-23T22:23:41.571Z,0.98
2022-12-23T22:26:10.558Z,1.00
2022-12-23T22:28:39.679Z,1.04
2022-12-23T22:31:29.936Z,1.03
2022-12-23T22:33:56.985Z,1.01
2022-12-23T22:36:23.627Z,1.01
2022-12-23T22:38:55.757Z,0.93
2022-12-23T22:41:23.337Z,0.91
2022-12-23T22:43:50.028Z,0.90
2022-12-23T22:46:18.397Z,0.78
2022-12-23T22:48:45.389Z,0.73
2022-12-23T22:51:15.727Z,0.80
2022-12-23T22:53:42.606Z,0.59
2022-12-23T22:56:11.782Z,0.43
2022-12-23T22:58:38.775Z,0.36
2022-12-23T23:01:06.005Z,0.32
2022-12-23T23:03:33.281Z,0.14
2022-12-23T23:06:03.359Z,-0.07
2022-12-23T23:08:30.872Z,-0.05
2022-12-23T23:10:59.922Z,-0.16
2022-12-23T23:13:29.285Z,-0.19
2022-12-23T23:15:56.371Z,-0.27
2022-12-23T23:18:23.569Z,-0.29
2022-12-23T23:20:50.721Z,-0.30
2022-12-23T23:23:17.554Z,-0.19
2022-12-23T23:25:44.225Z,-0.13
2022-12-23T23:28:11.787Z,0.03
2022-12-23T23:30:39.497Z,0.07
2022-12-23T23:33:07.764Z,0.09
2022-12-23T23:35:35.123Z,0.17
2022-12-23T23:38:01.734Z,0.11
2022-12-23T23:40:28.431Z,-0.06
2022-12-23T23:42:54.934Z,-0.09
2022-12-23T23:45:21.516Z,-0.08
2022-12-23T23:47:48.161Z,-0.17
2022-12-23T23:50:15.290Z,-0.21
2022-12-23T23:52:41.853Z,-0.22
2022-12-23T23:55:08.934Z,-0.06
2022-12-23T23:57:35.476Z,0.08
